createdAt,value
2022-08-05T00:02:51.519Z,17.80
2022-08-05T00:06:36.094Z,17.80
2022-08-05T00:10:18.601Z,17.70
2022-08-05T00:14:00.632Z,17.70
2022-08-05T00:17:44.092Z,17.60
2022-08-05T00:21:30.637Z,17.60
2022-08-05T00:25:12.937Z,17.60
2022-08-05T00:28:54.925Z,17.60
2022-08-05T00:32:36.894Z,17.50
2022-08-05T00:37:10.923Z,17.50
2022-08-05T00:40:26.875Z,17.40
2022-08-05T00:44:10.586Z,17.40
2022-08-05T00:47:56.529Z,17.30
2022-08-05T00:51:50.292Z,17.30
2022-08-05T00:55:43.540Z,17.30
2022-08-05T00:59:25.682Z,17.30
2022-08-05T01:03:22.567Z,17.30
2022-08-05T01:07:05.708Z,17.20
2022-08-05T01:10:58.030Z,17.20
2022-08-05T01:14:55.958Z,17.10
2022-08-05T01:18:48.008Z,17.10
2022-08-05T01:22:41.305Z,17.10
2022-08-05T01:26:53.543Z,17.00
2022-08-05T01:30:40.019Z,17.00
2022-08-05T01:34:38.142Z,17.00
2022-08-05T01:38:26.777Z,17.00
2022-08-05T01:42:15.205Z,17.00
2022-08-05T01:46:07.533Z,17.00
2022-08-05T01:50:02.859Z,16.90
2022-08-05T01:53:57.467Z,16.90
2022-08-05T01:58:11.254Z,16.80
2022-08-05T02:01:49.152Z,16.80
2022-08-05T02:05:36.875Z,16.80
2022-08-05T02:09:20.574Z,16.70
2022-08-05T02:13:16.493Z,16.70
2022-08-05T02:17:06.907Z,16.70
2022-08-05T02:21:02.581Z,16.50
2022-08-05T02:24:52.165Z,16.50
2022-08-05T02:28:41.738Z,16.40
2022-08-05T02:32:31.650Z,16.30
2022-08-05T02:36:16.488Z,16.30
2022-08-05T02:39:59.052Z,16.20
2022-08-05T02:44:02.254Z,16.20
2022-08-05T02:48:07.567Z,16.20
2022-08-05T02:52:02.944Z,16.20
2022-08-05T02:55:55.277Z,16.10
2022-08-05T02:59:50.377Z,16.10
2022-08-05T03:04:02.038Z,16.00
2022-08-05T03:08:00.526Z,16.00
2022-08-05T03:11:56.899Z,16.00
2022-08-05T03:15:43.226Z,15.90
2022-08-05T03:19:34.566Z,15.80
2022-08-05T03:23:18.403Z,15.80
2022-08-05T03:27:06.640Z,15.80
2022-08-05T03:30:49.657Z,15.80
2022-08-05T03:34:33.438Z,15.80
2022-08-05T03:38:18.011Z,15.80
2022-08-05T03:42:14.926Z,15.80
2022-08-05T03:45:59.077Z,15.80
2022-08-05T03:49:51.848Z,15.70
2022-08-05T03:55:51.935Z,15.70
2022-08-05T03:57:48.819Z,15.70
2022-08-05T04:01:32.914Z,15.60
2022-08-05T04:05:14.946Z,15.50
2022-08-05T04:08:58.139Z,15.50
2022-08-05T04:16:24.903Z,15.40
2022-08-05T04:20:22.754Z,15.30
2022-08-05T04:24:09.103Z,15.20
2022-08-05T04:28:05.759Z,15.10
2022-08-05T04:31:53.419Z,15.10
2022-08-05T04:36:15.683Z,15.00
2022-08-05T04:39:40.991Z,15.00
2022-08-05T04:43:23.051Z,15.00
2022-08-05T04:47:09.374Z,15.00
2022-08-05T04:51:02.829Z,14.90
2022-08-05T04:54:45.869Z,14.90
2022-08-05T04:58:28.345Z,14.90
2022-08-05T05:02:36.571Z,14.90
2022-08-05T05:06:39.325Z,14.80
2022-08-05T05:10:16.416Z,14.80
2022-08-05T05:13:59.588Z,14.80
2022-08-05T05:17:56.566Z,14.70
2022-08-05T05:21:39.622Z,14.70
2022-08-05T05:25:21.850Z,14.70
2022-08-05T05:29:15.178Z,14.70
2022-08-05T05:33:00.759Z,14.80
2022-08-05T05:36:47.085Z,15.00
2022-08-05T05:40:32.105Z,15.50
2022-08-05T05:44:35.570Z,15.90
2022-08-05T05:48:16.307Z,16.30
2022-08-05T05:51:58.329Z,16.70
2022-08-05T05:55:51.493Z,17.00
2022-08-05T05:59:42.264Z,17.40
2022-08-05T06:03:28.330Z,17.80
2022-08-05T06:07:41.502Z,18.10
2022-08-05T06:11:24.342Z,18.50
2022-08-05T06:15:08.017Z,18.80
2022-08-05T06:18:50.178Z,19.10
2022-08-05T06:22:35.678Z,19.30
2022-08-05T06:26:21.373Z,19.50
2022-08-05T06:30:17.793Z,19.70
2022-08-05T06:34:07.612Z,20.00
2022-08-05T06:37:58.038Z,20.20
2022-08-05T06:41:41.307Z,20.30
2022-08-05T06:45:45.034Z,20.30
2022-08-05T06:50:01.995Z,20.40
2022-08-05T06:53:29.288Z,20.40
2022-08-05T06:58:02.540Z,20.40
2022-08-05T07:01:20.921Z,20.50
2022-08-05T07:05:03.315Z,20.40
2022-08-05T07:08:56.492Z,20.40
2022-08-05T07:12:59.748Z,20.50
2022-08-05T07:17:57.266Z,20.40
2022-08-05T07:20:53.366Z,20.30
2022-08-05T07:24:43.945Z,20.30
2022-08-05T07:28:34.910Z,20.30
2022-08-05T07:32:16.911Z,20.10
2022-08-05T07:36:20.022Z,20.10
2022-08-05T07:40:31.766Z,20.10
2022-08-05T07:44:14.186Z,20.00
2022-08-05T07:48:01.375Z,20.00
2022-08-05T07:51:52.954Z,20.10
2022-08-05T07:55:57.187Z,20.20
2022-08-05T07:59:41.375Z,20.30
2022-08-05T08:03:24.565Z,20.30
2022-08-05T08:07:28.479Z,20.40
2022-08-05T08:11:11.054Z,20.50
2022-08-05T08:15:02.645Z,20.50
2022-08-05T08:18:50.225Z,20.50
2022-08-05T08:22:33.360Z,20.50
2022-08-05T08:26:15.374Z,20.60
2022-08-05T08:30:06.154Z,20.50
2022-08-05T08:33:59.498Z,20.50
2022-08-05T08:37:45.092Z,20.60
2022-08-05T08:41:50.752Z,20.70
2022-08-05T08:45:33.018Z,20.60
2022-08-05T08:50:05.697Z,20.70
2022-08-05T08:53:19.304Z,20.70
2022-08-05T08:57:02.147Z,20.70
2022-08-05T09:00:44.582Z,20.70
2022-08-05T09:04:30.094Z,20.60
2022-08-05T09:08:12.907Z,20.50
2022-08-05T09:12:00.186Z,20.50
2022-08-05T09:15:47.998Z,20.50
2022-08-05T09:19:36.321Z,20.30
2022-08-05T09:23:37.521Z,20.30
2022-08-05T09:28:05.428Z,20.30
2022-08-05T09:32:45.740Z,20.10
2022-08-05T09:36:07.865Z,20.10
2022-08-05T09:39:58.333Z,20.00
2022-08-05T09:43:42.223Z,19.90
2022-08-05T09:47:48.104Z,19.90
2022-08-05T09:51:36.613Z,19.90
2022-08-05T09:55:57.872Z,19.90
2022-08-05T09:59:24.526Z,19.90
2022-08-05T10:03:11.378Z,19.90
2022-08-05T10:06:59.537Z,19.90
2022-08-05T10:10:54.095Z,20.00
2022-08-05T10:14:36.380Z,19.90
2022-08-05T10:18:22.403Z,19.90
2022-08-05T10:22:05.314Z,19.90
2022-08-05T10:25:51.223Z,19.90
2022-08-05T10:30:06.784Z,19.90
2022-08-05T10:33:40.100Z,19.90
2022-08-05T10:37:26.640Z,19.90
2022-08-05T10:42:00.877Z,20.00
2022-08-05T10:45:43.214Z,20.00
2022-08-05T10:49:33.291Z,20.00
2022-08-05T10:53:38.159Z,20.00
2022-08-05T10:57:32.038Z,20.10
2022-08-05T11:01:15.132Z,20.20
2022-08-05T11:04:57.168Z,20.20
2022-08-05T11:08:39.446Z,20.20
2022-08-05T11:12:45.430Z,20.30
2022-08-05T11:16:33.791Z,20.30
2022-08-05T11:20:47.503Z,20.40
2022-08-05T11:24:31.196Z,20.60
2022-08-05T11:28:17.247Z,20.70
2022-08-05T11:32:29.817Z,20.80
2022-08-05T11:36:15.089Z,20.90
2022-08-05T11:40:02.666Z,20.80
2022-08-05T11:44:06.777Z,20.70
2022-08-05T11:47:50.524Z,20.60
2022-08-05T11:51:44.604Z,20.60
2022-08-05T11:55:36.258Z,20.60
2022-08-05T11:59:24.192Z,20.70
2022-08-05T12:03:28.674Z,20.70
2022-08-05T12:07:13.878Z,20.80
2022-08-05T12:11:00.346Z,20.80
2022-08-05T12:14:47.828Z,20.90
2022-08-05T12:18:38.969Z,20.90
2022-08-05T12:22:27.146Z,20.90
2022-08-05T12:26:09.116Z,20.80
2022-08-05T12:30:10.472Z,20.90
2022-08-05T12:33:58.343Z,21.10
2022-08-05T12:37:40.382Z,21.30
2022-08-05T12:41:22.467Z,21.50
2022-08-05T12:45:16.407Z,21.60
2022-08-05T12:49:05.899Z,21.50
2022-08-05T12:52:59.630Z,21.40
2022-08-05T12:56:43.226Z,21.40
2022-08-05T13:02:03.965Z,21.40
2022-08-05T13:04:41.629Z,21.30
2022-08-05T13:08:24.106Z,21.30
2022-08-05T13:12:16.125Z,21.20
2022-08-05T13:15:59.212Z,21.20
2022-08-05T13:19:52.792Z,21.20
2022-08-05T13:23:35.059Z,21.20
2022-08-05T13:27:44.160Z,21.30
2022-08-05T13:31:33.916Z,21.30
2022-08-05T13:35:43.365Z,21.40
2022-08-05T13:40:13.682Z,21.40
2022-08-05T13:43:43.990Z,21.50
2022-08-05T13:48:08.958Z,21.40
2022-08-05T13:51:41.017Z,21.50
2022-08-05T13:55:40.950Z,21.50
2022-08-05T13:59:27.008Z,21.60
2022-08-05T14:03:09.708Z,21.70
2022-08-05T14:06:58.758Z,21.80
2022-08-05T14:10:53.720Z,21.90
2022-08-05T14:14:45.253Z,22.00
2022-08-05T14:18:27.211Z,22.00
2022-08-05T14:22:12.173Z,22.00
2022-08-05T14:25:58.640Z,21.90
2022-08-05T14:29:41.497Z,21.80
2022-08-05T14:33:24.300Z,21.70
2022-08-05T14:37:06.522Z,21.70
2022-08-05T14:40:48.727Z,21.60
2022-08-05T14:44:32.603Z,21.60
2022-08-05T14:48:33.099Z,21.70
2022-08-05T14:52:25.858Z,21.70
2022-08-05T14:56:22.675Z,21.70
2022-08-05T15:00:05.997Z,21.70
2022-08-05T15:03:49.279Z,21.60
2022-08-05T15:08:08.566Z,21.50
2022-08-05T15:11:51.628Z,21.50
2022-08-05T15:15:54.086Z,21.40
2022-08-05T15:19:36.887Z,21.40
2022-08-05T15:23:21.127Z,21.50
2022-08-05T15:27:04.591Z,21.60
2022-08-05T15:30:53.066Z,21.70
2022-08-05T15:34:35.348Z,21.70
2022-08-05T15:38:35.361Z,21.60
2022-08-05T15:42:50.027Z,21.60
2022-08-05T15:46:20.982Z,21.60
2022-08-05T15:50:07.996Z,21.60
2022-08-05T15:53:51.990Z,21.50
2022-08-05T15:57:34.703Z,21.50
2022-08-05T16:01:18.123Z,21.40
2022-08-05T16:05:00.835Z,21.40
2022-08-05T16:08:43.379Z,21.40
2022-08-05T16:12:26.770Z,21.50
2022-08-05T16:16:10.818Z,21.50
2022-08-05T16:20:04.368Z,21.50
2022-08-05T16:23:55.430Z,21.50
2022-08-05T16:28:00.925Z,21.50
2022-08-05T16:31:57.039Z,21.50
2022-08-05T16:35:43.121Z,21.50
2022-08-05T16:40:07.104Z,21.40
2022-08-05T16:43:34.729Z,21.40
2022-08-05T16:47:28.720Z,21.30
2022-08-05T16:51:18.938Z,21.20
2022-08-05T16:55:02.652Z,21.10
2022-08-05T16:58:46.355Z,21.00
2022-08-05T17:02:28.840Z,20.90
2022-08-05T17:06:12.281Z,20.90
2022-08-05T17:09:57.382Z,21.00
2022-08-05T17:13:41.538Z,21.00
2022-08-05T17:17:42.306Z,21.10
2022-08-05T17:21:24.883Z,21.10
2022-08-05T17:25:22.010Z,21.20
2022-08-05T17:29:09.906Z,21.20
2022-08-05T17:32:52.774Z,21.20
2022-08-05T17:36:38.711Z,21.20
2022-08-05T17:40:23.011Z,21.20
2022-08-05T17:44:05.226Z,21.10
2022-08-05T17:47:52.927Z,21.00
2022-08-05T17:51:40.133Z,21.00
2022-08-05T17:55:34.266Z,21.00
2022-08-05T17:59:21.057Z,20.90
2022-08-05T18:03:04.669Z,20.80
2022-08-05T18:06:50.023Z,20.70
2022-08-05T18:10:33.566Z,20.70
2022-08-05T18:14:20.495Z,20.60
2022-08-05T18:18:07.763Z,20.60
2022-08-05T18:22:08.307Z,20.50
2022-08-05T18:25:57.761Z,20.50
2022-08-05T18:29:42.990Z,20.40
2022-08-05T18:33:46.587Z,20.40
2022-08-05T18:37:34.581Z,20.30
2022-08-05T18:41:57.139Z,20.30
2022-08-05T18:45:24.072Z,20.30
2022-08-05T18:49:30.319Z,20.20
2022-08-05T18:53:22.188Z,20.20
2022-08-05T18:57:06.620Z,20.10
2022-08-05T19:00:51.490Z,20.10
2022-08-05T19:04:33.595Z,20.00
2022-08-05T19:08:15.820Z,20.00
2022-08-05T19:12:01.638Z,19.90
2022-08-05T19:15:59.407Z,19.90
2022-08-05T19:19:46.875Z,19.80
2022-08-05T19:24:08.072Z,19.80
2022-08-05T19:27:35.345Z,19.80
2022-08-05T19:31:17.876Z,19.70
2022-08-05T19:35:06.541Z,19.60
2022-08-05T19:38:48.794Z,19.60
2022-08-05T19:42:35.915Z,19.50
2022-08-05T19:46:29.361Z,19.50
2022-08-05T19:50:12.564Z,19.40
2022-08-05T19:54:04.196Z,19.40
2022-08-05T19:58:19.781Z,19.30
2022-08-05T20:01:49.456Z,19.20
2022-08-05T20:05:43.136Z,19.10
2022-08-05T20:09:25.407Z,19.10
2022-08-05T20:13:07.608Z,19.00
2022-08-05T20:16:51.714Z,19.00
2022-08-05T20:20:33.822Z,18.90
2022-08-05T20:24:15.990Z,18.80
2022-08-05T20:27:58.126Z,18.80
2022-08-05T20:31:52.247Z,18.70
2022-08-05T20:35:40.473Z,18.70
2022-08-05T20:39:36.628Z,18.60
2022-08-05T20:43:57.651Z,18.50
2022-08-05T20:47:20.923Z,18.50
2022-08-05T20:51:15.038Z,18.50
2022-08-05T20:55:15.976Z,18.40
2022-08-05T20:59:11.221Z,18.40
2022-08-05T21:03:01.209Z,18.30
2022-08-05T21:06:45.214Z,18.30
2022-08-05T21:10:28.162Z,18.30
2022-08-05T21:14:10.308Z,18.20
2022-08-05T21:17:54.364Z,18.20
2022-08-05T21:21:43.871Z,18.10
2022-08-05T21:25:33.758Z,18.00
2022-08-05T21:29:16.795Z,18.00
2022-08-05T21:32:59.824Z,17.90
2022-08-05T21:36:43.864Z,17.90
2022-08-05T21:40:31.178Z,17.80
2022-08-05T21:44:16.370Z,17.70
2022-08-05T21:48:08.981Z,17.60
2022-08-05T21:52:22.155Z,17.60
2022-08-05T21:56:04.313Z,17.60
2022-08-05T22:00:05.492Z,17.60
2022-08-05T22:03:53.195Z,17.50
2022-08-05T22:07:54.233Z,17.50
2022-08-05T22:11:37.474Z,17.40
2022-08-05T22:16:00.918Z,17.40
2022-08-05T22:20:02.124Z,17.30
2022-08-05T22:24:03.036Z,17.30
2022-08-05T22:28:09.868Z,17.20
2022-08-05T22:31:46.462Z,17.20
2022-08-05T22:35:48.513Z,17.10
2022-08-05T22:39:33.913Z,17.10
2022-08-05T22:43:16.168Z,17.10
2022-08-05T22:47:29.985Z,17.10
2022-08-05T22:51:16.023Z,17.10
2022-08-05T22:55:19.180Z,17.10
2022-08-05T22:59:04.043Z,17.00
2022-08-05T23:03:04.492Z,17.00
2022-08-05T23:06:47.764Z,16.90
2022-08-05T23:10:30.123Z,16.90
2022-08-05T23:14:13.287Z,16.90
2022-08-05T23:18:01.176Z,16.90
2022-08-05T23:21:48.337Z,16.80
2022-08-05T23:25:52.909Z,16.80
2022-08-05T23:29:34.508Z,16.80
2022-08-05T23:33:25.580Z,16.70
2022-08-05T23:37:18.894Z,16.70
2022-08-05T23:41:02.312Z,16.70
2022-08-05T23:44:44.504Z,16.60
2022-08-05T23:48:26.521Z,16.60
2022-08-05T23:52:27.811Z,16.50
2022-08-05T23:56:10.358Z,16.50
